Time;durP1;ratioP1;P1;durP2;ratioP2;P2;SDS_P1;SDS_P2;PMS_P1;PMS_P2;Temp;Humidity;BMP_temperature;BMP_pressure;BME280_temperature;BME280_humidity;BME280_pressure;Samples;Min_cycle;Max_cycle;Signal;HPM_P1;HPM_P2
2023/01/27 00:00:53;;;;;;;1.85;0.88;;;18.20;66.90;;;;;;4496816;31;20136;-67
2023/01/27 00:03:19;;;;;;;2.95;1.10;;;18.20;67.00;;;;;;4485355;31;20133;-65
2023/01/27 00:05:46;;;;;;;3.85;1.20;;;18.20;67.00;;;;;;4496304;31;20139;-65
2023/01/27 00:08:18;;;;;;;2.95;1.17;;;18.10;66.90;;;;;;4497445;31;20144;-66
2023/01/27 00:10:44;;;;;;;2.22;0.80;;;18.10;67.00;;;;;;4497162;31;20089;-65
2023/01/27 00:13:26;;;;;;;1.77;0.75;;;18.10;66.90;;;;;;4482367;31;20124;-65
2023/01/27 00:15:52;;;;;;;2.03;0.80;;;18.10;67.00;;;;;;4497669;31;20146;-66
2023/01/27 00:18:18;;;;;;;3.67;0.95;;;18.10;67.00;;;;;;4495955;31;20128;-65
2023/01/27 00:26:15;;;;;;;1.88;0.80;;;18.00;66.90;;;;;;4486485;31;20124;-65
2023/01/27 00:28:42;;;;;;;3.20;1.00;;;18.00;66.90;;;;;;4497792;31;20152;-67
2023/01/27 00:34:00;;;;;;;2.70;0.60;;;18.00;66.90;;;;;;4497324;31;20128;-66
2023/01/27 00:36:29;;;;;;;2.42;0.90;;;18.00;66.90;;;;;;4497705;31;20093;-66
2023/01/27 00:38:55;;;;;;;1.88;0.80;;;18.00;66.90;;;;;;4489803;31;20219;-65
2023/01/27 00:41:22;;;;;;;1.27;0.60;;;18.00;66.90;;;;;;4483278;31;20143;-65
2023/01/27 00:43:50;;;;;;;3.15;0.60;;;18.00;66.90;;;;;;4495574;31;20156;-66
2023/01/27 00:46:17;;;;;;;3.15;0.80;;;18.00;66.90;;;;;;4497034;31;20124;-66
2023/01/27 00:48:44;;;;;;;1.50;0.60;;;18.00;66.90;;;;;;4495871;31;20140;-66
2023/01/27 00:51:11;;;;;;;1.23;0.60;;;18.00;66.90;;;;;;4496786;31;20218;-66
2023/01/27 00:53:37;;;;;;;1.77;0.65;;;17.90;66.90;;;;;;4496899;31;20081;-66
2023/01/27 00:56:03;;;;;;;1.33;0.60;;;17.90;66.90;;;;;;4495849;31;20190;-66
2023/01/27 00:58:29;;;;;;;0.60;0.40;;;17.90;66.90;;;;;;4498111;31;20140;-65
2023/01/27 01:01:00;;;;;;;1.52;0.55;;;17.90;66.90;;;;;;4496579;31;20642;-65
2023/01/27 01:03:30;;;;;;;2.17;0.60;;;17.90;66.90;;;;;;4498249;31;20132;-65
2023/01/27 01:06:01;;;;;;;1.60;0.52;;;17.90;67.80;;;;;;4497111;31;20141;-66
2023/01/27 01:08:29;;;;;;;1.35;0.80;;;17.90;66.90;;;;;;4497652;31;20132;-65
2023/01/27 01:10:55;;;;;;;1.88;0.82;;;17.90;67.00;;;;;;4497817;31;20072;-65
2023/01/27 01:13:21;;;;;;;2.13;0.82;;;17.80;66.80;;;;;;4482159;32;20586;-66
2023/01/27 01:15:47;;;;;;;2.50;0.65;;;17.80;66.90;;;;;;4484591;32;20195;-65
2023/01/27 01:18:16;;;;;;;2.10;0.82;;;17.80;66.90;;;;;;4494066;32;20190;-66
2023/01/27 01:20:44;;;;;;;1.02;0.63;;;17.80;66.90;;;;;;4498008;31;20121;-65
2023/01/27 01:23:10;;;;;;;1.63;0.60;;;17.80;66.90;;;;;;4497091;31;20210;-65
2023/01/27 01:25:37;;;;;;;1.55;0.55;;;17.80;67.00;;;;;;4509564;31;20144;-65
2023/01/27 01:28:04;;;;;;;1.25;0.65;;;17.80;66.90;;;;;;4509845;31;20209;-65
2023/01/27 01:30:32;;;;;;;1.95;0.73;;;17.80;66.90;;;;;;4496452;31;20144;-65
2023/01/27 01:32:58;;;;;;;1.33;0.60;;;17.80;67.80;;;;;;4510200;31;20166;-65
2023/01/27 01:35:24;;;;;;;1.48;0.65;;;17.80;66.90;;;;;;4496445;31;20117;-65
2023/01/27 01:37:51;;;;;;;1.73;0.52;;;17.80;66.90;;;;;;4496361;31;20144;-65
2023/01/27 01:40:17;;;;;;;2.65;0.90;;;17.70;66.90;;;;;;4489637;32;20133;-66
2023/01/27 01:42:50;;;;;;;1.30;0.50;;;17.70;66.90;;;;;;4497230;32;20494;-65
2023/01/27 01:45:43;;;;;;;1.25;0.60;;;17.70;66.90;;;;;;4497779;31;20238;-65
2023/01/27 01:48:20;;;;;;;1.20;0.50;;;17.70;66.90;;;;;;4486024;32;20132;-65
2023/01/27 01:50:56;;;;;;;1.52;0.70;;;17.70;66.90;;;;;;4499170;31;20140;-66
2023/01/27 01:53:28;;;;;;;1.77;0.90;;;17.70;67.00;;;;;;4500422;31;20179;-65
2023/01/27 01:55:57;;;;;;;2.78;0.93;;;17.70;67.00;;;;;;4499621;31;20143;-66
2023/01/27 01:58:26;;;;;;;1.35;0.60;;;17.70;67.10;;;;;;4500920;31;20141;-65
2023/01/27 02:00:54;;;;;;;2.42;0.80;;;17.60;67.00;;;;;;4498936;31;20291;-66
2023/01/27 02:03:24;;;;;;;2.63;0.60;;;17.60;67.00;;;;;;4512843;31;20132;-65
2023/01/27 02:05:53;;;;;;;1.60;0.73;;;17.60;67.00;;;;;;4495875;31;20473;-66
2023/01/27 02:08:29;;;;;;;2.38;0.70;;;17.60;67.00;;;;;;4499447;31;20136;-65
2023/01/27 02:10:55;;;;;;;1.55;0.60;;;17.60;67.00;;;;;;4500438;31;20077;-65
2023/01/27 02:13:21;;;;;;;1.33;0.55;;;17.60;67.00;;;;;;4499067;31;20136;-66
2023/01/27 02:15:49;;;;;;;1.90;0.60;;;17.60;67.00;;;;;;4512761;31;20242;-66
2023/01/27 02:18:15;;;;;;;1.63;0.60;;;17.60;67.00;;;;;;4497811;31;20141;-65
2023/01/27 02:20:41;;;;;;;1.70;0.45;;;17.60;67.10;;;;;;4500432;31;20134;-66
2023/01/27 02:23:18;;;;;;;1.50;0.52;;;17.60;67.10;;;;;;4499511;31;20132;-66
2023/01/27 02:26:05;;;;;;;1.40;0.52;;;17.60;67.10;;;;;;4495930;31;20246;-66
2023/01/27 02:28:32;;;;;;;1.27;0.63;;;17.60;67.00;;;;;;4483564;31;20498;-65
2023/01/27 02:30:58;;;;;;;1.00;0.40;;;17.50;67.10;;;;;;4498301;31;20163;-66
2023/01/27 02:33:24;;;;;;;1.00;0.55;;;17.50;67.10;;;;;;4512514;31;20297;-65
2023/01/27 02:35:58;;;;;;;1.80;0.60;;;17.50;67.10;;;;;;4499052;31;20136;-65
2023/01/27 02:38:31;;;;;;;2.05;0.80;;;17.50;67.10;;;;;;4499722;31;20136;-66
2023/01/27 02:41:02;;;;;;;1.67;0.60;;;17.50;67.10;;;;;;4496311;31;20081;-65
2023/01/27 02:43:28;;;;;;;1.30;0.60;;;17.50;67.10;;;;;;4490996;31;20291;-66
2023/01/27 02:45:53;;;;;;;1.25;0.50;;;17.50;67.10;;;;;;4512482;31;20129;-65
2023/01/27 02:48:19;;;;;;;1.15;0.40;;;17.50;67.10;;;;;;4510652;31;20540;-66
2023/01/27 02:50:45;;;;;;;1.20;0.60;;;17.50;67.10;;;;;;4512028;31;20121;-65
2023/01/27 02:53:11;;;;;;;1.58;0.50;;;17.50;68.00;;;;;;4511334;31;20561;-65
2023/01/27 02:55:37;;;;;;;1.95;0.70;;;17.50;67.10;;;;;;4499403;31;20246;-66
2023/01/27 02:58:03;;;;;;;1.38;0.60;;;17.50;67.20;;;;;;4499717;31;20081;-65
2023/01/27 03:00:28;;;;;;;1.58;0.60;;;17.40;67.10;;;;;;4510598;31;20117;-66
2023/01/27 03:02:54;;;;;;;1.00;0.70;;;17.40;67.10;;;;;;4499585;31;20132;-65
2023/01/27 03:05:21;;;;;;;2.95;0.55;;;17.40;67.20;;;;;;4494464;31;20137;-65
2023/01/27 03:07:47;;;;;;;0.90;0.40;;;17.40;67.20;;;;;;4495540;31;20128;-65
2023/01/27 03:10:12;;;;;;;1.05;0.40;;;17.40;67.20;;;;;;4498535;31;20584;-65
2023/01/27 03:12:38;;;;;;;1.67;0.70;;;17.40;67.20;;;;;;4499395;31;20112;-66
2023/01/27 03:20:33;;;;;;;1.50;0.60;;;17.40;67.10;;;;;;4487639;31;20267;-65
2023/01/27 03:22:59;;;;;;;1.75;0.50;;;17.40;67.20;;;;;;4498473;31;20193;-65
2023/01/27 03:25:25;;;;;;;1.02;0.45;;;17.40;67.20;;;;;;4511283;31;20113;-65
2023/01/27 03:27:51;;;;;;;1.35;0.40;;;17.40;67.20;;;;;;4511456;31;20072;-65
2023/01/27 03:30:17;;;;;;;0.70;0.40;;;17.30;67.10;;;;;;4509861;31;20124;-66
2023/01/27 03:32:45;;;;;;;1.55;0.43;;;17.30;67.10;;;;;;4498787;31;20555;-65
2023/01/27 03:35:15;;;;;;;2.47;0.57;;;17.30;67.10;;;;;;4497390;31;20579;-66
2023/01/27 03:48:41;;;;;;;0.95;0.32;;;17.30;67.10;;;;;;4481820;31;20279;-66
2023/01/27 03:51:08;;;;;;;1.08;0.40;;;17.30;67.10;;;;;;4492528;31;20144;-66
2023/01/27 03:53:35;;;;;;;0.95;0.47;;;17.30;67.10;;;;;;4509752;31;20234;-65
2023/01/27 03:56:01;;;;;;;1.33;0.50;;;17.20;67.00;;;;;;4494175;31;20179;-66
2023/01/27 03:58:30;;;;;;;0.75;0.30;;;17.30;67.10;;;;;;4494965;31;20361;-66
2023/01/27 04:00:59;;;;;;;0.95;0.40;;;17.20;67.00;;;;;;4495879;31;20175;-66
2023/01/27 04:09:04;;;;;;;0.70;0.40;;;17.20;67.00;;;;;;4497320;31;20124;-66
2023/01/27 04:14:16;;;;;;;0.93;0.43;;;17.20;67.10;;;;;;4485882;31;20117;-66
2023/01/27 04:16:42;;;;;;;1.75;0.38;;;17.20;67.10;;;;;;4510807;31;20133;-66
2023/01/27 04:19:09;;;;;;;1.00;0.50;;;17.20;67.10;;;;;;4498328;31;20715;-65
2023/01/27 04:21:36;;;;;;;0.82;0.50;;;17.10;67.00;;;;;;4497547;31;20136;-66
2023/01/27 04:24:03;;;;;;;0.57;0.40;;;17.10;67.00;;;;;;4498794;31;20526;-65
2023/01/27 04:26:33;;;;;;;0.40;0.30;;;17.10;67.10;;;;;;4509105;31;20129;-66
2023/01/27 04:29:01;;;;;;;0.70;0.30;;;17.10;67.10;;;;;;4498739;31;20120;-66
2023/01/27 04:31:26;;;;;;;1.42;0.45;;;17.10;67.10;;;;;;4486123;31;20176;-65
2023/01/27 04:33:52;;;;;;;1.38;0.50;;;17.10;67.10;;;;;;4498331;31;20247;-66
2023/01/27 04:36:18;;;;;;;0.98;0.40;;;17.10;67.10;;;;;;4498284;31;20131;-65
2023/01/27 04:38:44;;;;;;;0.90;0.43;;;17.10;67.10;;;;;;4497376;31;20116;-65
2023/01/27 04:41:10;;;;;;;0.95;0.38;;;17.10;67.20;;;;;;4504743;31;20683;-65
2023/01/27 04:43:36;;;;;;;0.47;0.30;;;17.10;67.10;;;;;;4495558;31;20113;-65
2023/01/27 04:46:02;;;;;;;1.17;0.40;;;17.10;67.10;;;;;;4497507;31;20174;-65
2023/01/27 04:48:28;;;;;;;0.98;0.35;;;17.00;67.00;;;;;;4495797;31;20190;-65
2023/01/27 04:50:54;;;;;;;0.98;0.30;;;17.00;67.10;;;;;;4498185;31;20125;-66
2023/01/27 04:53:19;;;;;;;0.85;0.50;;;17.00;67.00;;;;;;4497834;31;20629;-66
2023/01/27 04:55:48;;;;;;;0.77;0.30;;;17.00;67.00;;;;;;4497262;31;20124;-66
2023/01/27 04:58:16;;;;;;;0.85;0.28;;;17.10;66.90;;;;;;4496967;31;20136;-66
2023/01/27 05:00:43;;;;;;;0.60;0.35;;;17.10;66.90;;;;;;4508687;31;20723;-65
2023/01/27 05:03:10;;;;;;;0.70;0.30;;;17.10;66.90;;;;;;4498254;31;20144;-66
2023/01/27 05:05:37;;;;;;;1.08;0.38;;;17.10;66.80;;;;;;4485347;31;20225;-65
2023/01/27 05:08:09;;;;;;;1.15;0.32;;;17.10;66.70;;;;;;4509996;31;20148;-66
2023/01/27 05:10:35;;;;;;;0.93;0.45;;;17.10;66.70;;;;;;4497580;31;20073;-65
2023/01/27 05:13:01;;;;;;;0.75;0.30;;;17.10;66.60;;;;;;4496738;32;20450;-65
2023/01/27 05:15:27;;;;;;;0.40;0.30;;;17.20;66.60;;;;;;4505455;31;20139;-66
2023/01/27 05:17:53;;;;;;;1.65;0.40;;;17.20;66.40;;;;;;4485709;32;20152;-66
2023/01/27 05:20:19;;;;;;;0.52;0.30;;;17.20;66.40;;;;;;4498180;31;20137;-65
2023/01/27 05:22:45;;;;;;;1.20;0.38;;;17.20;66.30;;;;;;4508793;31;20140;-65
2023/01/27 05:25:14;;;;;;;0.77;0.40;;;17.20;66.30;;;;;;4499958;31;20223;-65
2023/01/27 05:27:39;;;;;;;1.17;0.30;;;17.20;66.30;;;;;;4513092;31;20129;-66
2023/01/27 05:30:06;;;;;;;0.73;0.30;;;17.20;66.20;;;;;;4500018;31;20113;-66
2023/01/27 05:32:32;;;;;;;0.45;0.25;;;17.20;66.20;;;;;;4501169;31;20144;-65
2023/01/27 05:34:58;;;;;;;1.27;0.50;;;17.30;66.20;;;;;;4499662;31;20113;-66
2023/01/27 05:37:23;;;;;;;0.80;0.43;;;17.30;66.20;;;;;;4513488;31;20258;-65
2023/01/27 05:39:49;;;;;;;0.75;0.30;;;17.30;66.20;;;;;;4498553;31;20147;-66
2023/01/27 05:42:15;;;;;;;0.50;0.20;;;17.30;66.10;;;;;;4500821;31;20168;-65
2023/01/27 05:44:41;;;;;;;0.80;0.30;;;17.30;66.10;;;;;;4512505;31;20626;-65
2023/01/27 05:47:07;;;;;;;0.60;0.20;;;17.30;66.10;;;;;;4500099;31;20175;-65
2023/01/27 05:49:32;;;;;;;0.95;0.30;;;17.30;66.10;;;;;;4499622;31;20139;-66
2023/01/27 05:51:58;;;;;;;1.10;0.30;;;17.30;66.10;;;;;;4499625;31;20171;-66
2023/01/27 05:54:24;;;;;;;0.60;0.30;;;17.30;66.10;;;;;;4499910;31;20128;-65
2023/01/27 05:56:50;;;;;;;1.50;0.40;;;17.30;66.10;;;;;;4499323;31;20125;-66
2023/01/27 05:59:16;;;;;;;0.22;0.10;;;17.30;66.00;;;;;;4500736;31;20139;-65
2023/01/27 06:01:41;;;;;;;0.73;0.30;;;17.30;66.00;;;;;;4499838;31;20132;-66
2023/01/27 06:04:09;;;;;;;0.88;0.10;;;17.30;65.90;;;;;;4508512;31;20198;-66
2023/01/27 06:06:34;;;;;;;0.52;0.20;;;17.30;65.90;;;;;;4493499;31;20078;-65
2023/01/27 06:09:01;;;;;;;1.17;0.35;;;17.30;65.90;;;;;;4498144;31;20159;-66
2023/01/27 06:11:27;;;;;;;0.50;0.20;;;17.30;65.90;;;;;;4499580;31;20490;-65
2023/01/27 06:13:53;;;;;;;0.88;0.28;;;17.30;65.90;;;;;;4499015;31;20144;-65
2023/01/27 06:16:21;;;;;;;0.80;0.22;;;17.30;65.80;;;;;;4502547;31;20129;-66
2023/01/27 06:18:47;;;;;;;0.65;0.20;;;17.30;65.80;;;;;;4499699;31;20270;-66
2023/01/27 06:21:15;;;;;;;0.38;0.17;;;17.30;65.70;;;;;;4499902;31;20132;-66
2023/01/27 06:23:41;;;;;;;0.52;0.28;;;17.30;65.70;;;;;;4500439;31;20092;-66
2023/01/27 06:26:13;;;;;;;1.52;0.20;;;17.30;65.70;;;;;;4511253;31;20117;-65
2023/01/27 06:28:39;;;;;;;0.57;0.20;;;17.40;65.60;;;;;;4500432;31;20136;-65
2023/01/27 06:31:14;;;;;;;0.30;0.20;;;17.30;65.70;;;;;;4497644;31;20121;-65
2023/01/27 06:33:41;;;;;;;0.30;0.20;;;17.40;65.60;;;;;;4499132;31;20190;-65
2023/01/27 06:36:10;;;;;;;0.60;0.30;;;17.40;65.60;;;;;;4498010;31;20136;-65
2023/01/27 06:38:36;;;;;;;0.73;0.30;;;17.40;65.60;;;;;;4498046;31;20238;-65
2023/01/27 06:41:02;;;;;;;0.73;0.20;;;17.40;65.50;;;;;;4511988;31;20136;-66
2023/01/27 06:43:28;;;;;;;0.70;0.20;;;17.40;65.50;;;;;;4498611;31;20269;-65
2023/01/27 06:45:56;;;;;;;0.57;0.20;;;17.40;65.50;;;;;;4506687;31;20617;-65
2023/01/27 06:48:23;;;;;;;0.40;0.20;;;17.40;65.40;;;;;;4498414;31;20120;-65
2023/01/27 06:50:49;;;;;;;0.43;0.20;;;17.40;65.50;;;;;;4498763;31;20128;-65
2023/01/27 06:53:15;;;;;;;1.02;0.32;;;17.40;65.50;;;;;;4511588;31;20471;-65
2023/01/27 06:55:41;;;;;;;0.95;0.30;;;17.40;65.40;;;;;;4511185;31;20132;-65
2023/01/27 06:58:07;;;;;;;0.30;0.20;;;17.40;65.50;;;;;;4499911;31;20202;-65
2023/01/27 07:00:35;;;;;;;0.17;0.13;;;17.40;65.50;;;;;;4497588;31;20301;-66
2023/01/27 07:03:01;;;;;;;0.35;0.20;;;17.30;65.40;;;;;;4499995;31;20250;-65
2023/01/27 07:05:27;;;;;;;0.20;0.15;;;17.30;65.50;;;;;;4496886;31;20125;-65
2023/01/27 07:07:53;;;;;;;1.15;0.30;;;17.30;65.50;;;;;;4488920;31;20117;-65
2023/01/27 07:10:19;;;;;;;0.50;0.30;;;17.30;65.50;;;;;;4500095;31;20145;-65
2023/01/27 07:12:45;;;;;;;0.45;0.25;;;17.30;65.50;;;;;;4498553;31;20125;-65
2023/01/27 07:15:12;;;;;;;0.30;0.20;;;17.30;65.60;;;;;;4511656;31;20321;-66
2023/01/27 07:17:38;;;;;;;0.22;0.13;;;17.30;65.60;;;;;;4498229;31;20486;-65
2023/01/27 07:20:05;;;;;;;0.43;0.20;;;17.30;65.60;;;;;;4499785;31;20597;-66
2023/01/27 07:22:31;;;;;;;0.50;0.20;;;17.30;65.70;;;;;;4498162;31;20128;-65
2023/01/27 07:24:57;;;;;;;0.30;0.25;;;17.20;65.60;;;;;;4499649;31;20109;-66
2023/01/27 07:27:23;;;;;;;0.50;0.20;;;17.20;65.60;;;;;;4497593;31;20179;-65
2023/01/27 07:29:50;;;;;;;0.38;0.20;;;17.20;65.60;;;;;;4498815;31;20749;-66
2023/01/27 07:32:16;;;;;;;0.17;0.15;;;17.20;65.70;;;;;;4499357;31;20092;-66
2023/01/27 07:34:42;;;;;;;0.60;0.20;;;17.20;65.60;;;;;;4498006;31;20144;-66
2023/01/27 07:37:07;;;;;;;0.40;0.20;;;17.20;65.70;;;;;;4499349;31;20147;-65
2023/01/27 07:39:36;;;;;;;0.40;0.30;;;17.20;65.70;;;;;;4496676;31;20257;-65
2023/01/27 07:42:05;;;;;;;0.47;0.20;;;17.20;65.70;;;;;;4499156;31;20131;-66
2023/01/27 07:44:31;;;;;;;0.20;0.20;;;17.20;65.70;;;;;;4498410;31;20129;-65
2023/01/27 07:46:58;;;;;;;0.55;0.20;;;17.20;65.70;;;;;;4498488;31;20136;-66
2023/01/27 07:49:24;;;;;;;0.55;0.20;;;17.20;65.70;;;;;;4498173;31;20077;-65
2023/01/27 07:51:50;;;;;;;0.65;0.30;;;17.20;65.70;;;;;;4497610;31;20142;-65
2023/01/27 07:54:16;;;;;;;1.25;0.40;;;17.10;65.70;;;;;;4499175;31;20121;-65
2023/01/27 07:56:42;;;;;;;0.55;0.10;;;17.10;65.70;;;;;;4509599;31;20136;-65
2023/01/27 07:59:09;;;;;;;0.68;0.20;;;17.10;65.70;;;;;;4498083;31;20205;-66
2023/01/27 08:01:36;;;;;;;0.40;0.20;;;17.10;65.70;;;;;;4492009;31;20283;-65
2023/01/27 08:04:02;;;;;;;0.63;0.30;;;17.10;65.70;;;;;;4496449;31;20699;-65
2023/01/27 08:06:28;;;;;;;1.55;0.25;;;17.10;65.90;;;;;;4486809;31;20211;-66
2023/01/27 08:08:53;;;;;;;4.07;0.55;;;17.10;65.90;;;;;;4496900;31;20105;-65
2023/01/27 08:11:20;;;;;;;0.98;0.25;;;17.10;66.20;;;;;;4498423;31;20148;-66
2023/01/27 08:13:46;;;;;;;2.83;0.32;;;17.10;66.50;;;;;;4496989;31;20116;-66
2023/01/27 08:16:14;;;;;;;0.85;0.30;;;17.10;66.60;;;;;;4495308;31;20136;-66
2023/01/27 08:18:39;;;;;;;0.93;0.30;;;17.20;66.50;;;;;;4497548;31;20128;-66
2023/01/27 08:21:08;;;;;;;0.68;0.28;;;17.20;66.30;;;;;;4496964;31;20174;-66
2023/01/27 08:23:35;;;;;;;1.15;0.28;;;17.30;66.10;;;;;;4498619;31;20628;-66
2023/01/27 08:26:04;;;;;;;1.10;0.20;;;17.50;65.80;;;;;;4494740;31;20132;-65
2023/01/27 08:28:33;;;;;;;2.45;0.30;;;17.60;65.50;;;;;;4498534;31;20136;-66
2023/01/27 08:31:11;;;;;;;1.60;0.30;;;17.80;65.20;;;;;;4496736;31;20144;-66
2023/01/27 08:33:38;;;;;;;0.40;0.30;;;17.90;64.70;;;;;;4495977;31;20117;-66
2023/01/27 08:36:07;;;;;;;1.25;0.28;;;18.10;64.50;;;;;;4497878;31;20128;-65
2023/01/27 08:38:33;;;;;;;2.17;0.20;;;18.20;64.10;;;;;;4492530;31;20566;-66
2023/01/27 08:41:06;;;;;;;2.10;0.30;;;18.40;63.70;;;;;;4494785;31;20113;-66
2023/01/27 08:43:32;;;;;;;1.65;0.40;;;18.50;63.40;;;;;;4493363;31;20140;-66
2023/01/27 08:45:59;;;;;;;1.27;0.30;;;18.70;63.10;;;;;;4498151;31;20455;-66
2023/01/27 08:48:29;;;;;;;1.50;0.30;;;18.80;62.70;;;;;;4495771;31;20143;-65
2023/01/27 08:50:56;;;;;;;1.10;0.30;;;18.90;62.40;;;;;;4498015;31;20262;-66
2023/01/27 08:53:23;;;;;;;1.10;0.20;;;19.10;62.20;;;;;;4498106;31;20073;-65
2023/01/27 08:55:49;;;;;;;1.00;0.20;;;19.10;61.80;;;;;;4497029;31;20141;-65
2023/01/27 08:58:16;;;;;;;2.20;0.35;;;19.30;61.70;;;;;;4497005;31;20164;-65
2023/01/27 09:00:41;;;;;;;0.98;0.32;;;19.30;61.50;;;;;;4495538;31;20179;-66
2023/01/27 09:03:07;;;;;;;0.80;0.30;;;19.40;61.50;;;;;;4497558;31;20329;-66
2023/01/27 09:05:35;;;;;;;1.48;0.43;;;19.40;61.30;;;;;;4484770;31;20135;-65
2023/01/27 09:08:01;;;;;;;0.40;0.30;;;19.40;61.30;;;;;;4498042;31;20125;-65
2023/01/27 09:10:27;;;;;;;0.90;0.30;;;19.40;61.20;;;;;;4497689;31;20174;-65
2023/01/27 09:12:54;;;;;;;0.40;0.20;;;19.40;61.20;;;;;;4508795;31;20152;-65
2023/01/27 09:15:20;;;;;;;1.70;0.40;;;19.40;61.20;;;;;;4510329;31;20462;-66
2023/01/27 09:17:46;;;;;;;2.58;0.40;;;19.50;61.20;;;;;;4496580;31;20122;-65
2023/01/27 09:20:12;;;;;;;1.02;0.30;;;19.40;61.10;;;;;;4498160;31;20186;-65
2023/01/27 09:22:39;;;;;;;1.70;0.40;;;19.40;61.00;;;;;;4496738;31;20133;-66
2023/01/27 09:25:07;;;;;;;3.90;0.52;;;19.50;61.10;;;;;;4496594;32;20193;-66
2023/01/27 09:27:33;;;;;;;1.13;0.32;;;19.50;61.80;;;;;;4496306;32;20117;-65
2023/01/27 09:29:58;;;;;;;1.30;0.30;;;19.50;60.80;;;;;;4484471;32;20221;-65
2023/01/27 09:32:24;;;;;;;1.17;0.38;;;19.50;60.80;;;;;;4497515;32;20274;-65
2023/01/27 09:34:50;;;;;;;1.45;0.32;;;19.50;60.80;;;;;;4482302;32;20121;-65
2023/01/27 09:37:16;;;;;;;2.10;0.20;;;19.50;60.80;;;;;;4497556;32;20247;-65
2023/01/27 09:39:48;;;;;;;1.02;0.30;;;19.50;60.80;;;;;;4496038;31;20507;-67
2023/01/27 09:42:32;;;;;;;1.23;0.30;;;19.60;60.90;;;;;;4496737;31;20188;-65
2023/01/27 09:45:16;;;;;;;3.13;0.35;;;19.60;60.80;;;;;;4497133;32;20081;-65
2023/01/27 09:47:45;;;;;;;;;;;19.60;61.80;;;;;;4496558;32;20132;-66
2023/01/27 09:50:17;;;;;;;0.60;0.40;;;19.60;61.00;;;;;;4496871;32;20086;-67
2023/01/27 09:52:52;;;;;;;1.13;0.28;;;19.60;60.90;;;;;;4496451;32;20136;-65
2023/01/27 09:55:25;;;;;;;0.55;0.20;;;19.60;60.90;;;;;;4497500;31;20477;-65
2023/01/27 09:57:56;;;;;;;1.00;0.30;;;19.60;61.00;;;;;;4497798;31;20081;-65
2023/01/27 10:00:48;;;;;;;0.75;0.22;;;19.60;60.90;;;;;;4494892;32;20152;-65
2023/01/27 10:03:45;;;;;;;1.65;0.35;;;19.60;60.90;;;;;;4497330;32;20641;-65
2023/01/27 10:06:49;;;;;;;1.33;0.52;;;19.60;60.90;;;;;;4487982;32;20194;-65
2023/01/27 10:09:50;;;;;;;2.35;0.30;;;19.60;60.90;;;;;;4496002;32;20132;-65
2023/01/27 10:12:38;;;;;;;2.38;0.40;;;19.70;60.90;;;;;;4499206;31;20226;-65
2023/01/27 10:15:14;;;;;;;2.67;0.35;;;19.60;60.90;;;;;;4500629;31;20140;-65
2023/01/27 10:18:06;;;;;;;0.47;0.20;;;19.70;60.90;;;;;;4499074;31;20279;-65
2023/01/27 10:20:32;;;;;;;3.80;0.52;;;19.70;60.90;;;;;;4488597;31;20144;-65
2023/01/27 10:23:10;;;;;;;0.57;0.20;;;19.70;61.00;;;;;;4499456;31;20124;-65
2023/01/27 10:25:51;;;;;;;3.35;0.40;;;19.70;61.10;;;;;;4498445;31;20578;-66
2023/01/27 10:28:22;;;;;;;0.68;0.28;;;19.70;61.20;;;;;;4500510;31;20124;-65
2023/01/27 10:30:55;;;;;;;1.73;0.20;;;19.70;61.20;;;;;;4498219;31;20181;-66
2023/01/27 10:33:33;;;;;;;1.67;0.40;;;19.70;61.40;;;;;;4499345;31;20133;-67
2023/01/27 10:36:06;;;;;;;0.80;0.20;;;19.70;61.40;;;;;;4497130;31;20120;-66
2023/01/27 10:38:42;;;;;;;5.47;0.40;;;19.70;61.50;;;;;;4496932;31;20145;-66
2023/01/27 10:41:22;;;;;;;1.50;0.30;;;19.70;61.60;;;;;;4497965;31;20164;-66
2023/01/27 10:43:49;;;;;;;1.35;0.52;;;19.70;61.60;;;;;;4494162;31;20303;-66
2023/01/27 10:46:40;;;;;;;0.85;0.30;;;19.70;61.70;;;;;;4489264;31;20121;-64
2023/01/27 10:49:23;;;;;;;1.10;0.28;;;19.70;61.70;;;;;;4492960;31;20077;-64
2023/01/27 10:52:19;;;;;;;3.30;0.30;;;19.70;61.80;;;;;;4497921;31;20230;-65
2023/01/27 10:55:14;;;;;;;4.35;0.47;;;19.70;61.80;;;;;;4511062;31;20116;-65
2023/01/27 10:57:46;;;;;;;0.47;0.10;;;19.70;61.70;;;;;;4498875;31;20096;-65
2023/01/27 11:00:20;;;;;;;0.40;0.20;;;19.70;61.80;;;;;;4471160;31;26501;-65
2023/01/27 11:02:59;;;;;;;2.28;0.30;;;19.70;61.80;;;;;;4499533;31;20160;-65
2023/01/27 11:05:34;;;;;;;1.83;0.30;;;19.60;61.80;;;;;;4497229;31;20129;-65
2023/01/27 11:08:16;;;;;;;0.52;0.30;;;19.60;61.80;;;;;;4498810;31;20584;-65
2023/01/27 11:13:33;;;;;;;0.68;0.10;;;19.70;61.80;;;;;;4497850;31;20427;-65
2023/01/27 11:16:01;;;;;;;0.95;0.20;;;19.70;61.90;;;;;;4498186;31;20779;-65
2023/01/27 11:18:30;;;;;;;1.23;0.20;;;19.70;61.90;;;;;;4497240;31;20125;-65
2023/01/27 11:21:03;;;;;;;0.77;0.30;;;19.70;62.00;;;;;;4498807;31;20143;-66
2023/01/27 11:23:39;;;;;;;2.33;0.30;;;19.70;62.00;;;;;;4499125;31;20073;-65
2023/01/27 11:26:41;;;;;;;1.23;0.30;;;19.70;62.00;;;;;;4486890;31;20137;-65
2023/01/27 11:29:35;;;;;;;2.85;0.40;;;19.70;61.80;;;;;;4499182;31;20202;-65
2023/01/27 11:32:32;;;;;;;1.60;0.38;;;19.70;61.80;;;;;;4503492;31;20088;-65
2023/01/27 11:35:13;;;;;;;1.00;0.30;;;19.70;61.80;;;;;;4482729;31;20533;-65
2023/01/27 11:37:46;;;;;;;2.00;0.30;;;19.70;61.80;;;;;;4484022;31;20278;-65
2023/01/27 11:40:22;;;;;;;2.85;0.28;;;19.70;61.70;;;;;;4488877;31;20128;-65
2023/01/27 11:42:48;;;;;;;1.85;0.25;;;19.70;61.80;;;;;;4496416;31;20132;-64
2023/01/27 11:45:16;;;;;;;4.68;0.30;;;19.70;61.70;;;;;;4484761;31;20121;-65
2023/01/27 11:47:44;;;;;;;1.90;0.30;;;19.70;61.70;;;;;;4497417;31;20129;-65
2023/01/27 11:50:16;;;;;;;8.60;0.50;;;19.70;61.60;;;;;;4498611;31;20148;-64
2023/01/27 11:52:46;;;;;;;2.58;0.35;;;19.70;61.60;;;;;;4497797;31;20202;-66
2023/01/27 11:55:21;;;;;;;1.35;0.30;;;19.70;61.50;;;;;;4498070;31;20266;-65
2023/01/27 11:57:52;;;;;;;2.05;0.40;;;19.80;61.40;;;;;;4498209;31;20104;-65
2023/01/27 12:00:25;;;;;;;3.10;0.22;;;19.80;61.30;;;;;;4482405;31;27646;-65
2023/01/27 12:03:12;;;;;;;1.10;0.30;;;19.80;61.20;;;;;;4497682;31;20337;-70
2023/01/27 12:05:44;;;;;;;2.08;0.30;;;19.80;61.10;;;;;;4484356;31;20143;-65
2023/01/27 12:08:09;;;;;;;1.67;0.20;;;19.80;61.30;;;;;;4498328;31;20637;-64
2023/01/27 12:10:41;;;;;;;1.00;0.22;;;19.80;61.30;;;;;;4498444;31;20160;-63
2023/01/27 12:13:19;;;;;;;3.08;0.30;;;19.80;61.30;;;;;;4496984;31;20124;-65
2023/01/27 12:15:55;;;;;;;2.45;0.28;;;19.80;62.10;;;;;;4498255;31;20613;-65
2023/01/27 12:18:24;;;;;;;1.08;0.30;;;19.90;60.90;;;;;;4496920;31;20132;-65
2023/01/27 12:20:59;;;;;;;1.45;0.20;;;19.80;60.40;;;;;;4498162;31;20462;-65
2023/01/27 12:23:52;;;;;;;3.92;0.40;;;19.80;59.80;;;;;;4498254;31;20259;-64
2023/01/27 12:26:36;;;;;;;1.63;0.27;;;19.70;59.40;;;;;;4496437;31;20527;-65
2023/01/27 12:29:19;;;;;;;1.42;0.40;;;19.70;59.10;;;;;;4493481;31;20155;-66
2023/01/27 12:31:48;;;;;;;8.33;0.53;;;19.80;59.20;;;;;;4490784;31;20125;-65
2023/01/27 12:34:37;;;;;;;2.47;0.43;;;19.70;58.90;;;;;;4490810;31;20557;-65
2023/01/27 12:37:06;;;;;;;3.25;0.30;;;19.80;59.00;;;;;;4492252;31;20124;-65
2023/01/27 12:39:31;;;;;;;3.58;0.52;;;19.80;59.00;;;;;;4483917;31;20279;-65
2023/01/27 12:41:57;;;;;;;0.38;0.20;;;19.80;59.00;;;;;;4494523;31;20129;-66
2023/01/27 12:44:26;;;;;;;3.90;0.50;;;19.90;59.10;;;;;;4499070;31;20147;-65
2023/01/27 12:47:14;;;;;;;0.73;0.30;;;19.90;59.10;;;;;;4495591;31;20144;-65
2023/01/27 12:49:43;;;;;;;0.40;0.20;;;19.90;59.20;;;;;;4484244;31;20135;-66
2023/01/27 12:52:18;;;;;;;0.57;0.22;;;19.90;59.20;;;;;;4505112;31;20194;-65
2023/01/27 12:54:45;;;;;;;2.90;0.35;;;20.00;59.30;;;;;;4497006;31;20167;-68
2023/01/27 12:57:19;;;;;;;0.35;0.10;;;20.00;59.40;;;;;;4495380;31;20198;-64
2023/01/27 12:59:55;;;;;;;1.08;0.30;;;19.90;59.50;;;;;;4496759;31;20136;-66
2023/01/27 13:02:24;;;;;;;1.38;0.20;;;19.90;59.50;;;;;;4497729;31;20328;-65
2023/01/27 13:05:07;;;;;;;1.20;0.38;;;20.00;59.60;;;;;;4495244;31;20490;-66
2023/01/27 13:07:42;;;;;;;2.85;0.47;;;19.90;59.60;;;;;;4507420;31;20121;-66
2023/01/27 13:10:22;;;;;;;0.98;0.40;;;20.00;59.70;;;;;;4508605;31;20136;-66
2023/01/27 13:12:54;;;;;;;1.25;0.40;;;19.90;59.80;;;;;;4507455;31;20163;-66
2023/01/27 13:15:27;;;;;;;1.85;0.50;;;20.00;59.90;;;;;;4497789;31;20136;-65
2023/01/27 13:17:57;;;;;;;0.65;0.20;;;20.00;60.00;;;;;;4496906;31;20128;-66
2023/01/27 13:20:36;;;;;;;1.05;0.20;;;20.00;60.10;;;;;;4492227;32;20154;-67
2023/01/27 13:23:06;;;;;;;0.80;0.20;;;19.90;60.10;;;;;;4490338;32;20307;-65
2023/01/27 13:25:41;;;;;;;2.05;0.20;;;20.00;60.30;;;;;;4496810;31;20201;-66
2023/01/27 13:28:12;;;;;;;0.98;0.43;;;20.00;60.40;;;;;;4489939;32;20140;-66
2023/01/27 13:30:45;;;;;;;0.98;0.20;;;19.90;60.40;;;;;;4480406;32;20493;-66
2023/01/27 13:33:27;;;;;;;0.88;0.25;;;19.90;60.40;;;;;;4485755;31;20574;-66
2023/01/27 13:36:24;;;;;;;0.47;0.20;;;20.00;60.30;;;;;;4487517;32;20132;-66
2023/01/27 13:39:20;;;;;;;0.55;0.30;;;20.10;60.10;;;;;;4485677;31;20140;-66